sensor_id;sensor_type;location;lat;lon;timestamp;P1;durP1;ratioP1;P2;durP2;ratioP2
809;SDS011;387;48.772;9.186;2023-04-06T00:01:38;16.60;;;9.27;;
809;SDS011;387;48.772;9.186;2023-04-06T00:04:04;16.10;;;9.20;;
809;SDS011;387;48.772;9.186;2023-04-06T00:06:30;15.23;;;8.67;;
809;SDS011;387;48.772;9.186;2023-04-06T00:08:57;16.77;;;9.10;;
809;SDS011;387;48.772;9.186;2023-04-06T00:11:23;16.53;;;9.17;;
809;SDS011;387;48.772;9.186;2023-04-06T00:13:48;16.40;;;8.53;;
809;SDS011;387;48.772;9.186;2023-04-06T00:16:14;14.57;;;8.30;;
809;SDS011;387;48.772;9.186;2023-04-06T00:18:40;13.23;;;8.30;;
809;SDS011;387;48.772;9.186;2023-04-06T00:21:06;19.70;;;9.23;;
809;SDS011;387;48.772;9.186;2023-04-06T00:23:31;21.07;;;9.70;;
809;SDS011;387;48.772;9.186;2023-04-06T00:25:57;16.03;;;9.33;;
809;SDS011;387;48.772;9.186;2023-04-06T00:28:23;16.27;;;9.50;;
809;SDS011;387;48.772;9.186;2023-04-06T00:30:52;14.30;;;9.88;;
809;SDS011;387;48.772;9.186;2023-04-06T00:33:19;17.90;;;9.83;;
809;SDS011;387;48.772;9.186;2023-04-06T00:35:45;17.97;;;9.60;;
809;SDS011;387;48.772;9.186;2023-04-06T00:38:11;18.00;;;9.67;;
809;SDS011;387;48.772;9.186;2023-04-06T00:40:37;16.53;;;8.47;;
809;SDS011;387;48.772;9.186;2023-04-06T00:43:04;15.63;;;8.65;;
809;SDS011;387;48.772;9.186;2023-04-06T00:45:34;18.47;;;9.63;;
809;SDS011;387;48.772;9.186;2023-04-06T00:48:00;14.93;;;9.23;;
809;SDS011;387;48.772;9.186;2023-04-06T00:50:26;20.03;;;8.97;;
809;SDS011;387;48.772;9.186;2023-04-06T00:52:53;13.73;;;9.53;;
809;SDS011;387;48.772;9.186;2023-04-06T00:55:19;17.60;;;9.15;;
809;SDS011;387;48.772;9.186;2023-04-06T00:57:45;14.87;;;9.00;;
809;SDS011;387;48.772;9.186;2023-04-06T01:00:11;14.20;;;9.13;;
809;SDS011;387;48.772;9.186;2023-04-06T01:02:37;18.40;;;10.00;;
809;SDS011;387;48.772;9.186;2023-04-06T01:05:03;17.90;;;10.50;;
809;SDS011;387;48.772;9.186;2023-04-06T01:07:29;18.23;;;9.68;;
809;SDS011;387;48.772;9.186;2023-04-06T01:09:55;16.03;;;9.23;;
809;SDS011;387;48.772;9.186;2023-04-06T01:12:21;18.30;;;9.73;;
809;SDS011;387;48.772;9.186;2023-04-06T01:14:46;15.30;;;8.70;;
809;SDS011;387;48.772;9.186;2023-04-06T01:17:12;16.47;;;10.50;;
809;SDS011;387;48.772;9.186;2023-04-06T01:19:38;16.17;;;9.40;;
809;SDS011;387;48.772;9.186;2023-04-06T01:22:05;15.13;;;9.37;;
809;SDS011;387;48.772;9.186;2023-04-06T01:24:31;14.37;;;8.33;;
809;SDS011;387;48.772;9.186;2023-04-06T01:26:57;21.17;;;9.90;;
809;SDS011;387;48.772;9.186;2023-04-06T01:29:22;18.13;;;10.20;;
809;SDS011;387;48.772;9.186;2023-04-06T01:31:48;19.80;;;10.10;;
809;SDS011;387;48.772;9.186;2023-04-06T01:34:13;13.37;;;8.50;;
809;SDS011;387;48.772;9.186;2023-04-06T01:36:39;18.33;;;9.50;;
809;SDS011;387;48.772;9.186;2023-04-06T01:39:05;13.00;;;8.10;;
809;SDS011;387;48.772;9.186;2023-04-06T01:41:31;14.20;;;8.97;;
809;SDS011;387;48.772;9.186;2023-04-06T01:43:56;14.40;;;9.33;;
809;SDS011;387;48.772;9.186;2023-04-06T01:46:22;18.20;;;9.53;;
809;SDS011;387;48.772;9.186;2023-04-06T01:48:48;17.80;;;9.70;;
809;SDS011;387;48.772;9.186;2023-04-06T01:51:14;19.20;;;9.97;;
809;SDS011;387;48.772;9.186;2023-04-06T01:53:40;18.93;;;10.80;;
809;SDS011;387;48.772;9.186;2023-04-06T01:56:06;21.90;;;10.20;;
809;SDS011;387;48.772;9.186;2023-04-06T01:58:31;18.27;;;9.90;;
809;SDS011;387;48.772;9.186;2023-04-06T02:00:57;18.70;;;9.67;;
809;SDS011;387;48.772;9.186;2023-04-06T02:03:23;18.50;;;9.70;;
809;SDS011;387;48.772;9.186;2023-04-06T02:05:48;16.70;;;9.70;;
809;SDS011;387;48.772;9.186;2023-04-06T02:08:14;14.60;;;9.27;;
809;SDS011;387;48.772;9.186;2023-04-06T02:10:39;14.20;;;8.40;;
809;SDS011;387;48.772;9.186;2023-04-06T02:13:05;14.27;;;8.93;;
809;SDS011;387;48.772;9.186;2023-04-06T02:15:31;14.83;;;9.10;;
809;SDS011;387;48.772;9.186;2023-04-06T02:17:57;18.70;;;8.90;;
809;SDS011;387;48.772;9.186;2023-04-06T02:20:23;16.00;;;8.97;;
809;SDS011;387;48.772;9.186;2023-04-06T02:22:49;18.93;;;10.33;;
809;SDS011;387;48.772;9.186;2023-04-06T02:25:15;19.13;;;10.33;;
809;SDS011;387;48.772;9.186;2023-04-06T02:27:41;16.93;;;10.00;;
809;SDS011;387;48.772;9.186;2023-04-06T02:30:06;18.33;;;10.37;;
809;SDS011;387;48.772;9.186;2023-04-06T02:32:32;20.03;;;10.33;;
809;SDS011;387;48.772;9.186;2023-04-06T02:34:58;18.77;;;9.40;;
809;SDS011;387;48.772;9.186;2023-04-06T02:37:23;19.10;;;10.70;;
809;SDS011;387;48.772;9.186;2023-04-06T02:39:50;15.20;;;9.30;;
809;SDS011;387;48.772;9.186;2023-04-06T02:42:16;17.53;;;9.50;;
809;SDS011;387;48.772;9.186;2023-04-06T02:44:42;19.87;;;9.97;;
809;SDS011;387;48.772;9.186;2023-04-06T02:47:08;18.27;;;10.23;;
809;SDS011;387;48.772;9.186;2023-04-06T02:49:33;17.70;;;10.40;;
809;SDS011;387;48.772;9.186;2023-04-06T02:51:59;19.00;;;10.00;;
809;SDS011;387;48.772;9.186;2023-04-06T02:54:25;15.70;;;9.97;;
809;SDS011;387;48.772;9.186;2023-04-06T02:56:50;17.20;;;9.57;;
809;SDS011;387;48.772;9.186;2023-04-06T02:59:16;23.60;;;10.00;;
809;SDS011;387;48.772;9.186;2023-04-06T03:01:42;16.47;;;9.13;;
809;SDS011;387;48.772;9.186;2023-04-06T03:04:07;23.40;;;11.77;;
809;SDS011;387;48.772;9.186;2023-04-06T03:06:33;22.20;;;9.50;;
809;SDS011;387;48.772;9.186;2023-04-06T03:08:59;18.83;;;9.73;;
809;SDS011;387;48.772;9.186;2023-04-06T03:11:25;18.13;;;9.80;;
809;SDS011;387;48.772;9.186;2023-04-06T03:13:51;15.80;;;10.20;;
809;SDS011;387;48.772;9.186;2023-04-06T03:16:17;17.70;;;10.60;;
809;SDS011;387;48.772;9.186;2023-04-06T03:18:42;23.90;;;10.20;;
809;SDS011;387;48.772;9.186;2023-04-06T03:21:09;18.15;;;10.45;;
809;SDS011;387;48.772;9.186;2023-04-06T03:23:35;19.80;;;9.90;;
809;SDS011;387;48.772;9.186;2023-04-06T03:26:01;14.73;;;9.60;;
809;SDS011;387;48.772;9.186;2023-04-06T03:28:27;15.48;;;9.13;;
809;SDS011;387;48.772;9.186;2023-04-06T03:30:53;19.07;;;10.27;;
809;SDS011;387;48.772;9.186;2023-04-06T03:33:18;20.90;;;10.23;;
809;SDS011;387;48.772;9.186;2023-04-06T03:35:44;21.73;;;11.20;;
809;SDS011;387;48.772;9.186;2023-04-06T03:38:10;19.37;;;10.47;;
809;SDS011;387;48.772;9.186;2023-04-06T03:40:35;18.60;;;10.60;;
809;SDS011;387;48.772;9.186;2023-04-06T03:43:01;26.87;;;11.10;;
809;SDS011;387;48.772;9.186;2023-04-06T03:45:27;21.90;;;11.30;;
809;SDS011;387;48.772;9.186;2023-04-06T03:47:52;14.83;;;9.73;;
809;SDS011;387;48.772;9.186;2023-04-06T03:50:18;18.27;;;10.53;;
809;SDS011;387;48.772;9.186;2023-04-06T03:52:44;16.43;;;10.27;;
809;SDS011;387;48.772;9.186;2023-04-06T03:55:10;17.30;;;10.90;;
809;SDS011;387;48.772;9.186;2023-04-06T03:57:35;22.13;;;10.87;;
809;SDS011;387;48.772;9.186;2023-04-06T04:00:02;17.95;;;9.80;;
809;SDS011;387;48.772;9.186;2023-04-06T04:02:29;19.77;;;10.40;;
809;SDS011;387;48.772;9.186;2023-04-06T04:04:54;17.00;;;10.00;;
809;SDS011;387;48.772;9.186;2023-04-06T04:07:20;16.00;;;9.80;;
809;SDS011;387;48.772;9.186;2023-04-06T04:09:46;18.47;;;10.00;;
809;SDS011;387;48.772;9.186;2023-04-06T04:12:11;19.20;;;10.90;;
809;SDS011;387;48.772;9.186;2023-04-06T04:14:39;21.58;;;10.85;;
809;SDS011;387;48.772;9.186;2023-04-06T04:17:05;18.80;;;10.50;;
809;SDS011;387;48.772;9.186;2023-04-06T04:19:30;21.53;;;10.43;;
809;SDS011;387;48.772;9.186;2023-04-06T04:21:56;19.33;;;10.77;;
809;SDS011;387;48.772;9.186;2023-04-06T04:24:22;21.30;;;10.77;;
809;SDS011;387;48.772;9.186;2023-04-06T04:26:47;16.50;;;9.90;;
809;SDS011;387;48.772;9.186;2023-04-06T04:29:13;18.67;;;10.53;;
809;SDS011;387;48.772;9.186;2023-04-06T04:31:38;20.07;;;10.90;;
809;SDS011;387;48.772;9.186;2023-04-06T04:34:04;23.40;;;12.00;;
809;SDS011;387;48.772;9.186;2023-04-06T04:36:31;27.70;;;11.30;;
809;SDS011;387;48.772;9.186;2023-04-06T04:38:57;17.70;;;10.90;;
809;SDS011;387;48.772;9.186;2023-04-06T04:41:23;17.47;;;10.13;;
809;SDS011;387;48.772;9.186;2023-04-06T04:43:48;20.50;;;10.73;;
809;SDS011;387;48.772;9.186;2023-04-06T04:46:14;19.73;;;10.47;;
809;SDS011;387;48.772;9.186;2023-04-06T04:48:40;26.67;;;11.13;;
809;SDS011;387;48.772;9.186;2023-04-06T04:51:06;20.10;;;10.60;;
809;SDS011;387;48.772;9.186;2023-04-06T04:53:31;19.80;;;10.27;;
809;SDS011;387;48.772;9.186;2023-04-06T04:55:57;17.10;;;10.30;;
809;SDS011;387;48.772;9.186;2023-04-06T04:58:22;19.13;;;10.47;;
809;SDS011;387;48.772;9.186;2023-04-06T05:00:48;16.10;;;10.00;;
809;SDS011;387;48.772;9.186;2023-04-06T05:03:17;17.40;;;10.37;;
809;SDS011;387;48.772;9.186;2023-04-06T05:05:45;20.20;;;10.60;;
809;SDS011;387;48.772;9.186;2023-04-06T05:08:11;21.10;;;11.47;;
809;SDS011;387;48.772;9.186;2023-04-06T05:10:37;22.42;;;12.07;;
809;SDS011;387;48.772;9.186;2023-04-06T05:13:03;20.53;;;11.20;;
809;SDS011;387;48.772;9.186;2023-04-06T05:15:28;23.83;;;11.80;;
809;SDS011;387;48.772;9.186;2023-04-06T05:17:54;22.60;;;12.10;;
809;SDS011;387;48.772;9.186;2023-04-06T05:20:20;20.38;;;10.82;;
809;SDS011;387;48.772;9.186;2023-04-06T05:22:46;18.30;;;10.80;;
809;SDS011;387;48.772;9.186;2023-04-06T05:25:12;20.47;;;9.97;;
809;SDS011;387;48.772;9.186;2023-04-06T05:27:38;19.58;;;11.70;;
809;SDS011;387;48.772;9.186;2023-04-06T05:30:05;21.08;;;10.77;;
809;SDS011;387;48.772;9.186;2023-04-06T05:32:31;19.80;;;10.45;;
809;SDS011;387;48.772;9.186;2023-04-06T05:34:56;20.97;;;11.70;;
809;SDS011;387;48.772;9.186;2023-04-06T05:37:22;20.90;;;11.93;;
809;SDS011;387;48.772;9.186;2023-04-06T05:39:48;22.03;;;10.87;;
809;SDS011;387;48.772;9.186;2023-04-06T05:42:13;20.60;;;11.27;;
809;SDS011;387;48.772;9.186;2023-04-06T05:44:40;22.08;;;11.75;;
809;SDS011;387;48.772;9.186;2023-04-06T05:47:05;18.73;;;11.60;;
809;SDS011;387;48.772;9.186;2023-04-06T05:49:31;20.07;;;11.20;;
809;SDS011;387;48.772;9.186;2023-04-06T05:51:57;16.47;;;10.30;;
809;SDS011;387;48.772;9.186;2023-04-06T05:54:22;22.50;;;12.03;;
809;SDS011;387;48.772;9.186;2023-04-06T05:56:48;21.90;;;12.37;;
809;SDS011;387;48.772;9.186;2023-04-06T05:59:14;23.43;;;11.90;;
809;SDS011;387;48.772;9.186;2023-04-06T06:01:40;36.05;;;11.13;;
809;SDS011;387;48.772;9.186;2023-04-06T06:04:06;21.23;;;11.73;;
809;SDS011;387;48.772;9.186;2023-04-06T06:06:31;20.40;;;11.50;;
809;SDS011;387;48.772;9.186;2023-04-06T06:08:57;26.60;;;13.73;;
809;SDS011;387;48.772;9.186;2023-04-06T06:11:29;33.73;;;13.73;;
809;SDS011;387;48.772;9.186;2023-04-06T06:13:55;21.83;;;12.23;;
809;SDS011;387;48.772;9.186;2023-04-06T06:16:20;23.83;;;11.77;;
809;SDS011;387;48.772;9.186;2023-04-06T06:18:47;51.03;;;17.27;;
809;SDS011;387;48.772;9.186;2023-04-06T06:21:13;21.93;;;11.73;;
809;SDS011;387;48.772;9.186;2023-04-06T06:23:39;27.23;;;12.93;;
809;SDS011;387;48.772;9.186;2023-04-06T06:26:06;25.23;;;12.47;;
809;SDS011;387;48.772;9.186;2023-04-06T06:28:32;27.60;;;12.13;;
809;SDS011;387;48.772;9.186;2023-04-06T06:30:57;21.57;;;13.10;;
809;SDS011;387;48.772;9.186;2023-04-06T06:33:23;22.80;;;13.10;;
809;SDS011;387;48.772;9.186;2023-04-06T06:35:51;21.83;;;12.60;;
809;SDS011;387;48.772;9.186;2023-04-06T06:38:16;23.27;;;12.27;;
809;SDS011;387;48.772;9.186;2023-04-06T06:40:42;30.30;;;13.67;;
809;SDS011;387;48.772;9.186;2023-04-06T06:43:08;23.10;;;12.57;;
809;SDS011;387;48.772;9.186;2023-04-06T06:45:33;24.70;;;13.07;;
809;SDS011;387;48.772;9.186;2023-04-06T06:47:59;23.13;;;13.10;;
809;SDS011;387;48.772;9.186;2023-04-06T06:50:25;26.60;;;13.63;;
809;SDS011;387;48.772;9.186;2023-04-06T06:52:50;23.17;;;13.43;;
809;SDS011;387;48.772;9.186;2023-04-06T06:55:16;24.30;;;13.03;;
809;SDS011;387;48.772;9.186;2023-04-06T06:57:44;29.60;;;14.47;;
809;SDS011;387;48.772;9.186;2023-04-06T07:00:11;23.67;;;13.13;;
809;SDS011;387;48.772;9.186;2023-04-06T07:02:38;26.30;;;14.07;;
809;SDS011;387;48.772;9.186;2023-04-06T07:05:04;25.70;;;13.90;;
809;SDS011;387;48.772;9.186;2023-04-06T07:07:31;28.93;;;14.07;;
809;SDS011;387;48.772;9.186;2023-04-06T07:09:57;21.30;;;13.70;;
809;SDS011;387;48.772;9.186;2023-04-06T07:12:23;29.10;;;13.83;;
809;SDS011;387;48.772;9.186;2023-04-06T07:14:49;34.93;;;14.20;;
809;SDS011;387;48.772;9.186;2023-04-06T07:17:14;23.93;;;14.80;;
809;SDS011;387;48.772;9.186;2023-04-06T07:19:40;28.23;;;14.70;;
809;SDS011;387;48.772;9.186;2023-04-06T07:22:05;29.90;;;15.13;;
809;SDS011;387;48.772;9.186;2023-04-06T07:24:31;31.90;;;14.37;;
809;SDS011;387;48.772;9.186;2023-04-06T07:26:58;29.37;;;15.10;;
809;SDS011;387;48.772;9.186;2023-04-06T07:29:23;24.10;;;14.03;;
809;SDS011;387;48.772;9.186;2023-04-06T07:31:49;27.50;;;14.43;;
809;SDS011;387;48.772;9.186;2023-04-06T07:34:15;26.50;;;14.53;;
809;SDS011;387;48.772;9.186;2023-04-06T07:36:40;32.73;;;16.03;;
809;SDS011;387;48.772;9.186;2023-04-06T07:39:06;26.93;;;14.90;;
809;SDS011;387;48.772;9.186;2023-04-06T07:41:32;30.23;;;14.37;;
809;SDS011;387;48.772;9.186;2023-04-06T07:43:58;37.30;;;16.17;;
809;SDS011;387;48.772;9.186;2023-04-06T07:46:23;33.70;;;14.80;;
809;SDS011;387;48.772;9.186;2023-04-06T07:48:49;24.30;;;13.70;;
809;SDS011;387;48.772;9.186;2023-04-06T07:51:15;30.20;;;15.30;;
809;SDS011;387;48.772;9.186;2023-04-06T07:53:43;27.97;;;14.47;;
809;SDS011;387;48.772;9.186;2023-04-06T07:56:09;26.47;;;15.00;;
809;SDS011;387;48.772;9.186;2023-04-06T07:58:35;27.37;;;15.40;;
809;SDS011;387;48.772;9.186;2023-04-06T08:01:01;32.77;;;15.07;;
809;SDS011;387;48.772;9.186;2023-04-06T08:03:26;33.93;;;16.00;;
809;SDS011;387;48.772;9.186;2023-04-06T08:05:52;30.47;;;16.40;;
809;SDS011;387;48.772;9.186;2023-04-06T08:08:18;38.93;;;16.07;;
809;SDS011;387;48.772;9.186;2023-04-06T08:10:46;25.47;;;14.20;;
809;SDS011;387;48.772;9.186;2023-04-06T08:13:12;34.30;;;16.33;;
809;SDS011;387;48.772;9.186;2023-04-06T08:15:38;28.07;;;15.03;;
809;SDS011;387;48.772;9.186;2023-04-06T08:18:03;32.27;;;16.27;;
809;SDS011;387;48.772;9.186;2023-04-06T08:20:29;29.33;;;15.23;;
809;SDS011;387;48.772;9.186;2023-04-06T08:22:55;31.67;;;15.80;;
809;SDS011;387;48.772;9.186;2023-04-06T08:25:20;32.87;;;15.90;;
809;SDS011;387;48.772;9.186;2023-04-06T08:27:46;30.83;;;14.50;;
809;SDS011;387;48.772;9.186;2023-04-06T08:30:12;30.03;;;14.40;;
809;SDS011;387;48.772;9.186;2023-04-06T08:32:39;28.73;;;15.00;;
809;SDS011;387;48.772;9.186;2023-04-06T08:35:06;28.87;;;14.67;;
809;SDS011;387;48.772;9.186;2023-04-06T08:37:32;26.87;;;14.30;;
809;SDS011;387;48.772;9.186;2023-04-06T08:39:58;28.30;;;15.10;;
809;SDS011;387;48.772;9.186;2023-04-06T08:42:25;21.17;;;13.67;;
809;SDS011;387;48.772;9.186;2023-04-06T08:44:53;23.27;;;14.10;;
809;SDS011;387;48.772;9.186;2023-04-06T08:47:20;20.83;;;13.30;;
809;SDS011;387;48.772;9.186;2023-04-06T08:49:46;29.10;;;14.07;;
809;SDS011;387;48.772;9.186;2023-04-06T08:52:12;23.90;;;13.10;;
809;SDS011;387;48.772;9.186;2023-04-06T08:54:40;24.27;;;13.30;;
809;SDS011;387;48.772;9.186;2023-04-06T08:57:05;27.90;;;12.97;;
809;SDS011;387;48.772;9.186;2023-04-06T08:59:33;21.37;;;12.00;;
809;SDS011;387;48.772;9.186;2023-04-06T09:01:59;19.93;;;11.23;;
809;SDS011;387;48.772;9.186;2023-04-06T09:04:28;19.13;;;11.63;;
809;SDS011;387;48.772;9.186;2023-04-06T09:06:53;20.07;;;11.70;;
809;SDS011;387;48.772;9.186;2023-04-06T09:09:19;23.43;;;12.80;;
809;SDS011;387;48.772;9.186;2023-04-06T09:11:45;23.60;;;12.70;;
809;SDS011;387;48.772;9.186;2023-04-06T09:14:12;21.93;;;13.20;;
809;SDS011;387;48.772;9.186;2023-04-06T09:16:41;22.63;;;13.20;;
809;SDS011;387;48.772;9.186;2023-04-06T09:19:08;21.90;;;12.93;;
809;SDS011;387;48.772;9.186;2023-04-06T09:21:35;19.83;;;12.13;;
809;SDS011;387;48.772;9.186;2023-04-06T09:24:02;21.70;;;11.47;;
809;SDS011;387;48.772;9.186;2023-04-06T09:26:28;22.67;;;12.40;;
809;SDS011;387;48.772;9.186;2023-04-06T09:28:55;18.00;;;11.33;;
809;SDS011;387;48.772;9.186;2023-04-06T09:31:23;23.07;;;12.37;;
809;SDS011;387;48.772;9.186;2023-04-06T09:33:53;19.40;;;11.20;;
809;SDS011;387;48.772;9.186;2023-04-06T09:36:19;21.47;;;11.20;;
809;SDS011;387;48.772;9.186;2023-04-06T09:39:01;18.83;;;11.17;;
809;SDS011;387;48.772;9.186;2023-04-06T09:41:29;18.57;;;10.60;;
809;SDS011;387;48.772;9.186;2023-04-06T09:44:13;19.47;;;10.97;;
809;SDS011;387;48.772;9.186;2023-04-06T09:46:42;20.60;;;10.17;;
809;SDS011;387;48.772;9.186;2023-04-06T09:49:10;19.90;;;9.40;;
809;SDS011;387;48.772;9.186;2023-04-06T09:51:38;19.80;;;10.13;;
809;SDS011;387;48.772;9.186;2023-04-06T09:54:05;15.43;;;9.50;;
809;SDS011;387;48.772;9.186;2023-04-06T09:56:56;13.93;;;9.20;;
809;SDS011;387;48.772;9.186;2023-04-06T09:59:48;15.57;;;9.10;;
809;SDS011;387;48.772;9.186;2023-04-06T10:05:02;17.97;;;10.50;;
809;SDS011;387;48.772;9.186;2023-04-06T10:07:37;15.80;;;9.30;;
809;SDS011;387;48.772;9.186;2023-04-06T10:10:05;15.30;;;9.53;;
809;SDS011;387;48.772;9.186;2023-04-06T10:12:31;18.03;;;9.50;;
809;SDS011;387;48.772;9.186;2023-04-06T10:14:57;17.63;;;9.70;;
809;SDS011;387;48.772;9.186;2023-04-06T10:17:23;17.17;;;8.67;;
809;SDS011;387;48.772;9.186;2023-04-06T10:19:53;15.07;;;8.63;;
809;SDS011;387;48.772;9.186;2023-04-06T10:22:26;13.43;;;8.77;;
809;SDS011;387;48.772;9.186;2023-04-06T10:25:01;17.17;;;9.53;;
809;SDS011;387;48.772;9.186;2023-04-06T10:27:28;17.53;;;9.93;;
809;SDS011;387;48.772;9.186;2023-04-06T10:29:54;16.60;;;9.10;;
809;SDS011;387;48.772;9.186;2023-04-06T10:32:33;17.60;;;8.43;;
809;SDS011;387;48.772;9.186;2023-04-06T10:40:32;15.87;;;8.83;;
809;SDS011;387;48.772;9.186;2023-04-06T10:43:20;18.70;;;9.63;;
809;SDS011;387;48.772;9.186;2023-04-06T10:45:57;17.30;;;8.90;;
809;SDS011;387;48.772;9.186;2023-04-06T10:48:25;17.33;;;9.40;;
809;SDS011;387;48.772;9.186;2023-04-06T10:51:09;15.83;;;9.00;;
809;SDS011;387;48.772;9.186;2023-04-06T10:53:36;11.73;;;7.20;;
809;SDS011;387;48.772;9.186;2023-04-06T10:56:02;14.70;;;8.27;;
809;SDS011;387;48.772;9.186;2023-04-06T10:58:34;14.43;;;8.73;;
809;SDS011;387;48.772;9.186;2023-04-06T11:00:59;17.07;;;9.00;;
809;SDS011;387;48.772;9.186;2023-04-06T11:03:25;15.87;;;8.90;;
809;SDS011;387;48.772;9.186;2023-04-06T11:05:52;15.53;;;9.27;;
809;SDS011;387;48.772;9.186;2023-04-06T11:08:30;17.20;;;9.60;;
809;SDS011;387;48.772;9.186;2023-04-06T11:11:04;13.43;;;8.83;;
809;SDS011;387;48.772;9.186;2023-04-06T11:18:55;12.83;;;8.10;;
809;SDS011;387;48.772;9.186;2023-04-06T11:22:05;14.10;;;8.70;;
809;SDS011;387;48.772;9.186;2023-04-06T11:24:17;16.13;;;8.33;;
809;SDS011;387;48.772;9.186;2023-04-06T11:26:51;16.30;;;8.97;;
809;SDS011;387;48.772;9.186;2023-04-06T11:29:21;12.70;;;8.27;;
809;SDS011;387;48.772;9.186;2023-04-06T11:31:52;13.90;;;8.80;;
809;SDS011;387;48.772;9.186;2023-04-06T11:34:20;13.47;;;8.27;;
809;SDS011;387;48.772;9.186;2023-04-06T11:36:48;13.27;;;9.13;;
809;SDS011;387;48.772;9.186;2023-04-06T11:39:18;13.60;;;8.27;;
809;SDS011;387;48.772;9.186;2023-04-06T11:41:49;11.20;;;8.40;;
809;SDS011;387;48.772;9.186;2023-04-06T11:44:27;14.57;;;8.47;;
809;SDS011;387;48.772;9.186;2023-04-06T11:47:02;14.77;;;8.87;;
809;SDS011;387;48.772;9.186;2023-04-06T11:49:30;20.63;;;8.93;;
809;SDS011;387;48.772;9.186;2023-04-06T11:51:57;19.20;;;9.20;;
809;SDS011;387;48.772;9.186;2023-04-06T11:54:30;10.57;;;7.33;;
809;SDS011;387;48.772;9.186;2023-04-06T11:56:56;12.70;;;8.03;;
809;SDS011;387;48.772;9.186;2023-04-06T11:59:21;17.00;;;8.77;;
809;SDS011;387;48.772;9.186;2023-04-06T12:01:47;14.17;;;8.27;;
809;SDS011;387;48.772;9.186;2023-04-06T12:04:13;12.27;;;8.10;;
809;SDS011;387;48.772;9.186;2023-04-06T12:06:39;15.03;;;9.03;;
809;SDS011;387;48.772;9.186;2023-04-06T12:09:05;15.20;;;9.33;;
809;SDS011;387;48.772;9.186;2023-04-06T12:11:31;13.10;;;7.90;;
809;SDS011;387;48.772;9.186;2023-04-06T12:13:56;13.60;;;9.37;;
809;SDS011;387;48.772;9.186;2023-04-06T12:16:24;16.10;;;8.17;;
809;SDS011;387;48.772;9.186;2023-04-06T12:18:49;11.10;;;8.20;;
809;SDS011;387;48.772;9.186;2023-04-06T12:21:16;13.43;;;8.30;;
809;SDS011;387;48.772;9.186;2023-04-06T12:23:41;14.53;;;9.07;;
809;SDS011;387;48.772;9.186;2023-04-06T12:26:07;14.10;;;7.83;;
809;SDS011;387;48.772;9.186;2023-04-06T12:28:33;13.43;;;8.67;;
809;SDS011;387;48.772;9.186;2023-04-06T12:30:58;13.27;;;7.30;;
809;SDS011;387;48.772;9.186;2023-04-06T12:33:24;13.70;;;8.83;;
809;SDS011;387;48.772;9.186;2023-04-06T12:35:50;12.30;;;9.40;;
809;SDS011;387;48.772;9.186;2023-04-06T12:38:16;16.43;;;8.20;;
809;SDS011;387;48.772;9.186;2023-04-06T12:40:42;15.13;;;9.13;;
809;SDS011;387;48.772;9.186;2023-04-06T12:43:07;12.10;;;7.30;;
809;SDS011;387;48.772;9.186;2023-04-06T12:45:33;11.83;;;8.57;;
809;SDS011;387;48.772;9.186;2023-04-06T12:47:59;12.77;;;7.97;;
809;SDS011;387;48.772;9.186;2023-04-06T12:50:25;12.57;;;7.97;;
809;SDS011;387;48.772;9.186;2023-04-06T12:52:51;12.50;;;7.93;;
809;SDS011;387;48.772;9.186;2023-04-06T12:55:17;12.27;;;7.80;;
809;SDS011;387;48.772;9.186;2023-04-06T12:57:42;13.07;;;7.90;;
809;SDS011;387;48.772;9.186;2023-04-06T13:00:08;11.50;;;7.87;;
809;SDS011;387;48.772;9.186;2023-04-06T13:02:34;12.73;;;8.40;;
809;SDS011;387;48.772;9.186;2023-04-06T13:05:00;13.37;;;7.70;;
809;SDS011;387;48.772;9.186;2023-04-06T13:07:25;15.13;;;7.43;;
809;SDS011;387;48.772;9.186;2023-04-06T13:09:51;11.50;;;7.10;;
809;SDS011;387;48.772;9.186;2023-04-06T13:12:17;10.30;;;6.70;;
809;SDS011;387;48.772;9.186;2023-04-06T13:14:43;13.00;;;7.27;;
809;SDS011;387;48.772;9.186;2023-04-06T13:17:08;14.33;;;8.00;;
809;SDS011;387;48.772;9.186;2023-04-06T13:19:34;10.03;;;6.90;;
809;SDS011;387;48.772;9.186;2023-04-06T13:22:00;12.50;;;7.40;;
809;SDS011;387;48.772;9.186;2023-04-06T13:24:26;13.30;;;7.07;;
809;SDS011;387;48.772;9.186;2023-04-06T13:26:51;11.77;;;7.40;;
809;SDS011;387;48.772;9.186;2023-04-06T13:29:17;12.20;;;7.27;;
809;SDS011;387;48.772;9.186;2023-04-06T13:31:42;14.97;;;8.03;;
809;SDS011;387;48.772;9.186;2023-04-06T13:34:08;13.00;;;8.63;;
809;SDS011;387;48.772;9.186;2023-04-06T13:36:34;12.70;;;7.43;;
809;SDS011;387;48.772;9.186;2023-04-06T13:38:59;11.77;;;7.03;;
809;SDS011;387;48.772;9.186;2023-04-06T13:41:25;11.53;;;6.70;;
809;SDS011;387;48.772;9.186;2023-04-06T13:43:52;11.27;;;7.00;;
809;SDS011;387;48.772;9.186;2023-04-06T13:46:18;13.43;;;7.33;;
809;SDS011;387;48.772;9.186;2023-04-06T13:48:43;16.10;;;9.00;;
809;SDS011;387;48.772;9.186;2023-04-06T13:51:10;13.40;;;8.03;;
809;SDS011;387;48.772;9.186;2023-04-06T13:53:37;12.87;;;6.87;;
809;SDS011;387;48.772;9.186;2023-04-06T13:56:03;10.80;;;7.10;;
809;SDS011;387;48.772;9.186;2023-04-06T13:58:29;16.53;;;8.03;;
809;SDS011;387;48.772;9.186;2023-04-06T14:00:55;12.50;;;7.00;;
809;SDS011;387;48.772;9.186;2023-04-06T14:03:31;14.57;;;8.20;;
809;SDS011;387;48.772;9.186;2023-04-06T14:05:57;13.90;;;7.77;;
809;SDS011;387;48.772;9.186;2023-04-06T14:08:22;21.27;;;8.10;;
809;SDS011;387;48.772;9.186;2023-04-06T14:10:48;20.80;;;8.33;;
809;SDS011;387;48.772;9.186;2023-04-06T14:13:13;12.93;;;8.30;;
809;SDS011;387;48.772;9.186;2023-04-06T14:15:40;13.20;;;7.87;;
809;SDS011;387;48.772;9.186;2023-04-06T14:18:07;16.23;;;7.40;;
809;SDS011;387;48.772;9.186;2023-04-06T14:20:33;12.60;;;7.43;;
809;SDS011;387;48.772;9.186;2023-04-06T14:23:00;12.97;;;6.43;;
809;SDS011;387;48.772;9.186;2023-04-06T14:25:26;18.93;;;8.37;;
809;SDS011;387;48.772;9.186;2023-04-06T14:27:52;12.93;;;8.23;;
809;SDS011;387;48.772;9.186;2023-04-06T14:30:17;13.40;;;7.80;;
809;SDS011;387;48.772;9.186;2023-04-06T14:32:43;17.37;;;7.63;;
809;SDS011;387;48.772;9.186;2023-04-06T14:35:09;15.50;;;8.30;;
809;SDS011;387;48.772;9.186;2023-04-06T14:37:35;15.00;;;8.37;;
809;SDS011;387;48.772;9.186;2023-04-06T14:40:01;17.27;;;8.23;;
809;SDS011;387;48.772;9.186;2023-04-06T14:42:27;13.13;;;7.87;;
809;SDS011;387;48.772;9.186;2023-04-06T14:44:53;11.30;;;7.50;;
809;SDS011;387;48.772;9.186;2023-04-06T14:47:18;13.60;;;7.70;;
809;SDS011;387;48.772;9.186;2023-04-06T14:49:46;14.30;;;7.90;;
809;SDS011;387;48.772;9.186;2023-04-06T14:52:12;12.77;;;8.03;;
809;SDS011;387;48.772;9.186;2023-04-06T14:54:38;11.00;;;6.90;;
809;SDS011;387;48.772;9.186;2023-04-06T14:57:04;10.50;;;6.90;;
809;SDS011;387;48.772;9.186;2023-04-06T14:59:30;14.53;;;7.97;;
809;SDS011;387;48.772;9.186;2023-04-06T15:01:57;13.67;;;7.30;;
809;SDS011;387;48.772;9.186;2023-04-06T15:04:24;14.57;;;7.70;;
809;SDS011;387;48.772;9.186;2023-04-06T15:06:50;12.30;;;7.83;;
809;SDS011;387;48.772;9.186;2023-04-06T15:09:16;11.33;;;7.20;;
809;SDS011;387;48.772;9.186;2023-04-06T15:11:56;10.73;;;7.10;;
809;SDS011;387;48.772;9.186;2023-04-06T15:14:21;13.03;;;7.40;;
809;SDS011;387;48.772;9.186;2023-04-06T15:16:47;10.37;;;6.97;;
809;SDS011;387;48.772;9.186;2023-04-06T15:19:13;16.67;;;8.00;;
809;SDS011;387;48.772;9.186;2023-04-06T15:21:38;15.63;;;7.40;;
809;SDS011;387;48.772;9.186;2023-04-06T15:24:04;11.17;;;6.77;;
809;SDS011;387;48.772;9.186;2023-04-06T15:26:33;15.00;;;7.93;;
809;SDS011;387;48.772;9.186;2023-04-06T15:29:00;11.07;;;7.77;;
809;SDS011;387;48.772;9.186;2023-04-06T15:31:26;13.20;;;7.77;;
809;SDS011;387;48.772;9.186;2023-04-06T15:33:56;12.83;;;7.63;;